createdAt,value
2022-10-03T00:00:10.733Z,98001.34
2022-10-03T00:03:24.825Z,98017.22
2022-10-03T00:06:27.316Z,98023.88
2022-10-03T00:09:35.483Z,98011.34
2022-10-03T00:12:50.221Z,98021.09
2022-10-03T00:15:46.238Z,98028.34
2022-10-03T00:18:48.134Z,98027.78
2022-10-03T00:22:07.129Z,98025.16
2022-10-03T00:25:23.760Z,98007.63
2022-10-03T00:28:26.091Z,98015.50
2022-10-03T00:31:22.858Z,98010.47
2022-10-03T00:34:25.258Z,98010.81
2022-10-03T00:37:26.708Z,97997.34
2022-10-03T00:41:13.002Z,98001.34
2022-10-03T00:44:37.870Z,98004.31
2022-10-03T00:48:01.028Z,98015.69
2022-10-03T00:51:05.832Z,98009.47
2022-10-03T00:54:22.820Z,97994.72
2022-10-03T00:57:42.767Z,97992.16
2022-10-03T01:00:35.736Z,97983.28
2022-10-03T01:03:46.853Z,97991.56
2022-10-03T01:06:47.352Z,97990.81
2022-10-03T01:09:51.746Z,98001.84
2022-10-03T01:13:06.514Z,97992.00
2022-10-03T01:16:08.817Z,97985.25
2022-10-03T01:19:18.434Z,97977.06
2022-10-03T01:22:31.983Z,97978.22
2022-10-03T01:25:38.713Z,97967.00
2022-10-03T01:29:06.550Z,97979.63
2022-10-03T01:32:14.177Z,97982.88
2022-10-03T01:35:18.465Z,97988.97
2022-10-03T01:38:21.073Z,97980.69
2022-10-03T01:41:16.753Z,97980.88
2022-10-03T01:44:19.312Z,97974.53
2022-10-03T01:47:22.939Z,97972.22
2022-10-03T01:50:24.283Z,97974.63
2022-10-03T01:53:26.973Z,97967.59
2022-10-03T01:56:27.080Z,97977.94
2022-10-03T01:59:31.413Z,97990.00
2022-10-03T02:02:29.920Z,97983.75
2022-10-03T02:05:38.350Z,97988.94
2022-10-03T02:08:51.151Z,97994.16
2022-10-03T02:11:59.419Z,97983.81
2022-10-03T02:14:57.321Z,97986.72
2022-10-03T02:17:58.139Z,97993.78
2022-10-03T02:20:53.143Z,97983.63
2022-10-03T02:23:52.481Z,97990.00
2022-10-03T02:27:25.733Z,97994.97
2022-10-03T02:30:39.180Z,97997.97
2022-10-03T02:34:01.324Z,98006.09
2022-10-03T02:37:28.606Z,97992.81
2022-10-03T02:40:49.719Z,97992.47
2022-10-03T02:44:15.279Z,97993.94
2022-10-03T02:48:19.768Z,97993.94
2022-10-03T02:51:43.245Z,97997.56
2022-10-03T02:55:16.136Z,97992.69
2022-10-03T02:58:46.406Z,98002.47
2022-10-03T03:02:07.981Z,98002.47
2022-10-03T03:05:36.528Z,97983.50
2022-10-03T03:09:14.361Z,97981.91
2022-10-03T03:12:59.086Z,97981.06
2022-10-03T03:20:15.369Z,97978.75
2022-10-03T03:23:32.583Z,97980.00
2022-10-03T03:27:07.278Z,97986.41
2022-10-03T03:30:10.067Z,97973.47
2022-10-03T03:33:15.040Z,97974.03
2022-10-03T03:36:12.143Z,97971.00
2022-10-03T03:39:19.584Z,97979.94
2022-10-03T03:42:31.336Z,97970.06
2022-10-03T03:45:44.791Z,97985.03
2022-10-03T03:48:54.315Z,97963.78
2022-10-03T03:51:49.693Z,97986.94
2022-10-03T03:55:04.091Z,97969.19
2022-10-03T03:58:18.318Z,97969.88
2022-10-03T04:01:39.180Z,97969.03
2022-10-03T04:04:45.056Z,97963.44
2022-10-03T04:07:55.408Z,97968.63
2022-10-03T04:11:00.082Z,97982.25
2022-10-03T04:14:30.147Z,97977.34
2022-10-03T04:17:55.496Z,97964.66
2022-10-03T04:21:07.835Z,97955.84
2022-10-03T04:24:23.778Z,97963.75
2022-10-03T04:27:32.958Z,97978.28
2022-10-03T04:30:43.322Z,97968.09
2022-10-03T04:33:43.453Z,97964.84
2022-10-03T04:37:10.549Z,97937.59
2022-10-03T04:40:19.305Z,97963.53
2022-10-03T04:43:36.453Z,97955.28
2022-10-03T04:46:35.566Z,97951.69
2022-10-03T04:49:32.417Z,97967.38
2022-10-03T04:52:36.708Z,97973.22
2022-10-03T04:55:35.620Z,97956.88
2022-10-03T04:58:43.528Z,97958.72
2022-10-03T05:01:45.878Z,97966.09
2022-10-03T05:04:42.946Z,97966.75
2022-10-03T05:07:42.744Z,97952.09
2022-10-03T05:10:50.868Z,97965.22
2022-10-03T05:14:02.168Z,97982.16
2022-10-03T05:17:06.468Z,97979.47
2022-10-03T05:20:13.669Z,97953.72
2022-10-03T05:23:16.456Z,97956.94
2022-10-03T05:26:43.636Z,97954.88
2022-10-03T05:29:38.118Z,97969.03
2022-10-03T05:32:44.315Z,97940.41
2022-10-03T05:36:00.793Z,97963.50
2022-10-03T05:39:22.007Z,97969.47
2022-10-03T05:42:42.423Z,97968.25
2022-10-03T05:45:50.318Z,97960.59
2022-10-03T05:48:52.476Z,97967.19
2022-10-03T05:52:00.161Z,97993.78
2022-10-03T05:55:18.777Z,97988.81
2022-10-03T05:58:41.590Z,98003.81
2022-10-03T06:02:07.005Z,97990.84
2022-10-03T06:05:17.334Z,97986.13
2022-10-03T06:08:49.790Z,98004.34
2022-10-03T06:12:14.233Z,98013.09
2022-10-03T06:15:28.554Z,98011.97
2022-10-03T06:18:55.216Z,98011.25
2022-10-03T06:22:21.953Z,98012.31
2022-10-03T06:25:47.872Z,98027.66
2022-10-03T06:29:22.903Z,97990.44
2022-10-03T06:32:55.200Z,98028.16
2022-10-03T06:36:30.795Z,98028.34
2022-10-03T06:39:47.225Z,97999.53
2022-10-03T06:43:07.523Z,98006.66
2022-10-03T06:46:28.475Z,98024.59
2022-10-03T06:49:36.683Z,98015.75
2022-10-03T06:53:00.108Z,98021.41
2022-10-03T06:56:39.482Z,98018.06
2022-10-03T06:59:53.648Z,98016.41
2022-10-03T07:03:21.275Z,98021.75
2022-10-03T07:06:55.226Z,98029.75
2022-10-03T07:10:27.239Z,97989.34
2022-10-03T07:13:51.320Z,98004.97
2022-10-03T07:17:23.910Z,98036.50
2022-10-03T07:20:51.832Z,97999.13
2022-10-03T07:24:08.278Z,98007.38
2022-10-03T07:27:14.515Z,98028.97
2022-10-03T07:30:17.223Z,98042.38
2022-10-03T07:33:38.830Z,98057.53
2022-10-03T07:37:07.773Z,98039.75
2022-10-03T07:40:43.233Z,98023.41
2022-10-03T07:44:14.489Z,98044.09
2022-10-03T07:47:37.515Z,98070.97
2022-10-03T07:50:54.199Z,98023.88
2022-10-03T07:54:16.294Z,98048.16
2022-10-03T07:57:25.105Z,98032.81
2022-10-03T08:00:23.384Z,98029.84
2022-10-03T08:03:48.655Z,98047.69
2022-10-03T08:06:46.511Z,98053.78
2022-10-03T08:09:57.665Z,98023.59
2022-10-03T08:13:18.386Z,98019.41
2022-10-03T08:16:25.295Z,98024.69
2022-10-03T08:20:03.476Z,98041.22
2022-10-03T08:23:09.233Z,98047.91
2022-10-03T08:26:17.818Z,98037.84
2022-10-03T08:29:32.302Z,98051.22
2022-10-03T08:32:59.372Z,98039.53
2022-10-03T08:36:18.940Z,98068.88
2022-10-03T08:39:32.943Z,98057.69
2022-10-03T08:42:47.884Z,98038.81
2022-10-03T08:46:07.264Z,98052.16
2022-10-03T08:49:28.233Z,98046.09
2022-10-03T08:52:37.092Z,98043.28
2022-10-03T08:56:00.190Z,98051.88
2022-10-03T08:59:22.258Z,98051.00
2022-10-03T09:03:28.347Z,98045.31
2022-10-03T09:06:48.267Z,98036.94
2022-10-03T09:10:10.374Z,98038.84
2022-10-03T09:13:38.975Z,98044.06
2022-10-03T09:17:07.322Z,98052.50
2022-10-03T09:20:17.569Z,98055.50
2022-10-03T09:24:02.164Z,98068.94
2022-10-03T09:27:33.818Z,98057.25
2022-10-03T09:30:39.589Z,98038.09
2022-10-03T09:34:05.185Z,98037.69
2022-10-03T09:37:33.558Z,98062.78
2022-10-03T09:41:04.360Z,98056.53
2022-10-03T09:44:39.782Z,98064.72
2022-10-03T09:48:19.280Z,98063.56
2022-10-03T09:51:22.792Z,98069.22
2022-10-03T09:54:33.228Z,98068.34
2022-10-03T09:57:47.101Z,98056.19
2022-10-03T10:01:05.270Z,98050.66
2022-10-03T10:04:50.553Z,98049.09
2022-10-03T10:08:30.879Z,98051.59
2022-10-03T10:11:35.390Z,98076.66
2022-10-03T10:14:51.306Z,98078.38
2022-10-03T10:18:12.208Z,98065.19
2022-10-03T10:21:43.843Z,98064.22
2022-10-03T10:25:20.367Z,98063.50
2022-10-03T10:28:49.433Z,98070.41
2022-10-03T10:32:16.614Z,98063.19
2022-10-03T10:35:59.985Z,98073.78
2022-10-03T10:39:36.467Z,98076.19
2022-10-03T10:43:15.841Z,98067.50
2022-10-03T10:46:34.718Z,98084.84
2022-10-03T10:50:06.711Z,98052.19
2022-10-03T10:53:33.267Z,98044.38
2022-10-03T10:57:48.726Z,98088.44
2022-10-03T11:01:05.681Z,98063.00
2022-10-03T11:04:36.217Z,98077.22
2022-10-03T11:08:04.643Z,98068.63
2022-10-03T11:11:23.790Z,98086.66
2022-10-03T11:14:36.404Z,98085.00
2022-10-03T11:18:15.718Z,98072.38
2022-10-03T11:21:49.524Z,98080.53
2022-10-03T11:25:35.272Z,98092.25
2022-10-03T11:29:18.073Z,98088.19
2022-10-03T11:32:58.377Z,98089.44
2022-10-03T11:36:32.375Z,98081.75
2022-10-03T11:39:34.788Z,98090.88
2022-10-03T11:42:35.104Z,98102.72
2022-10-03T11:45:31.363Z,98113.28
2022-10-03T11:48:42.575Z,98087.34
2022-10-03T11:51:48.230Z,98118.44
2022-10-03T11:54:49.311Z,98107.63
2022-10-03T11:57:45.258Z,98127.38
2022-10-03T12:00:37.982Z,98101.25
2022-10-03T12:03:30.359Z,98097.31
2022-10-03T12:06:55.089Z,98132.19
2022-10-03T12:10:15.246Z,98125.53
2022-10-03T12:13:11.105Z,98153.44
2022-10-03T12:16:02.404Z,98098.41
2022-10-03T12:18:57.174Z,98132.66
2022-10-03T12:21:57.187Z,98121.03
2022-10-03T12:24:47.515Z,98127.72
2022-10-03T12:27:51.177Z,98154.50
2022-10-03T12:30:49.515Z,98113.56
2022-10-03T12:33:53.408Z,98125.19
2022-10-03T12:36:53.391Z,98127.19
2022-10-03T12:40:00.478Z,98119.28
2022-10-03T12:43:19.277Z,98142.09
2022-10-03T12:46:24.464Z,98136.41
2022-10-03T12:49:23.605Z,98122.28
2022-10-03T12:52:21.219Z,98133.63
2022-10-03T12:55:25.374Z,98141.28
2022-10-03T12:58:25.676Z,98120.47
2022-10-03T13:01:30.702Z,98122.69
2022-10-03T13:04:34.787Z,98133.47
2022-10-03T13:07:39.565Z,98113.19
2022-10-03T13:10:37.224Z,98151.97
2022-10-03T13:13:45.343Z,98155.91
2022-10-03T13:16:41.222Z,98091.25
2022-10-03T13:19:44.709Z,98122.41
2022-10-03T13:22:45.271Z,98106.59
2022-10-03T13:25:40.152Z,98107.34
2022-10-03T13:28:35.842Z,98111.63
2022-10-03T13:31:31.301Z,98121.09
2022-10-03T13:34:25.295Z,98097.22
2022-10-03T13:37:27.253Z,98113.53
2022-10-03T13:40:21.498Z,98113.53
2022-10-03T13:43:14.862Z,98110.75
2022-10-03T13:46:12.616Z,98088.81
2022-10-03T13:49:12.130Z,98120.72
2022-10-03T13:52:20.092Z,98102.94
2022-10-03T13:55:52.865Z,98129.50
2022-10-03T13:58:57.060Z,98131.59
2022-10-03T14:02:00.561Z,98115.56
2022-10-03T14:05:08.533Z,98144.44
2022-10-03T14:08:10.839Z,98147.34
2022-10-03T14:11:27.219Z,98135.63
2022-10-03T14:14:47.035Z,98144.72
2022-10-03T14:17:51.645Z,98141.44
2022-10-03T14:21:21.235Z,98181.34
2022-10-03T14:24:44.160Z,98162.00
2022-10-03T14:27:52.624Z,98150.50
2022-10-03T14:31:05.948Z,98163.06
2022-10-03T14:34:11.115Z,98189.34
2022-10-03T14:37:08.475Z,98147.25
2022-10-03T14:40:13.264Z,98166.66
2022-10-03T14:43:20.979Z,98160.97
2022-10-03T14:46:18.400Z,98146.22
2022-10-03T14:49:21.323Z,98166.25
2022-10-03T14:52:36.593Z,98160.50
2022-10-03T14:55:30.674Z,98157.13
2022-10-03T14:58:24.009Z,98177.69
2022-10-03T15:01:23.166Z,98142.94
2022-10-03T15:04:24.989Z,98164.34
2022-10-03T15:07:26.882Z,98176.19
2022-10-03T15:10:22.911Z,98150.00
2022-10-03T15:13:14.897Z,98172.84
2022-10-03T15:16:07.374Z,98180.81
2022-10-03T15:19:08.305Z,98187.75
2022-10-03T15:22:10.429Z,98176.53
2022-10-03T15:25:10.383Z,98184.22
2022-10-03T15:28:05.266Z,98211.63
2022-10-03T15:31:05.604Z,98193.44
2022-10-03T15:34:02.141Z,98187.06
2022-10-03T15:37:01.805Z,98200.34
2022-10-03T15:43:09.427Z,98224.84
2022-10-03T15:46:00.666Z,98212.97
2022-10-03T15:48:56.053Z,98241.22
2022-10-03T15:51:51.376Z,98183.03
2022-10-03T15:54:48.544Z,98183.56
2022-10-03T15:57:50.992Z,98214.50
2022-10-03T16:00:48.624Z,98210.53
2022-10-03T16:03:48.744Z,98196.41
2022-10-03T16:06:49.664Z,98195.22
2022-10-03T16:10:14.129Z,98212.50
2022-10-03T16:13:19.003Z,98218.94
2022-10-03T16:16:21.187Z,98226.25
2022-10-03T16:19:28.751Z,98223.63
2022-10-03T16:22:27.156Z,98234.81
2022-10-03T16:25:27.145Z,98240.41
2022-10-03T16:28:25.861Z,98229.97
2022-10-03T16:31:27.008Z,98228.94
2022-10-03T16:34:19.759Z,98239.78
2022-10-03T16:37:21.197Z,98232.19
2022-10-03T16:40:25.982Z,98229.25
2022-10-03T16:43:34.181Z,98246.63
2022-10-03T16:46:25.021Z,98233.31
2022-10-03T16:49:49.088Z,98250.78
2022-10-03T16:52:44.598Z,98235.53
2022-10-03T16:55:39.946Z,98251.97
2022-10-03T16:58:40.482Z,98256.09
2022-10-03T17:01:44.982Z,98246.13
2022-10-03T17:04:53.806Z,98250.84
2022-10-03T17:07:50.364Z,98251.16
2022-10-03T17:11:12.781Z,98263.13
2022-10-03T17:14:07.957Z,98269.34
2022-10-03T17:17:05.126Z,98250.03
2022-10-03T17:20:00.891Z,98267.47
2022-10-03T17:22:59.993Z,98263.53
2022-10-03T17:25:59.979Z,98270.63
2022-10-03T17:28:58.065Z,98259.75
2022-10-03T17:32:00.146Z,98255.66
2022-10-03T17:34:55.689Z,98269.53
2022-10-03T17:38:30.837Z,98268.31
2022-10-03T17:41:44.169Z,98258.69
2022-10-03T17:45:00.173Z,98273.75
2022-10-03T17:47:57.627Z,98278.91
2022-10-03T17:51:02.740Z,98289.94
2022-10-03T17:54:13.703Z,98279.13
2022-10-03T17:57:13.766Z,98277.50
2022-10-03T18:00:17.951Z,98279.06
2022-10-03T18:06:46.979Z,98273.84
2022-10-03T18:09:48.055Z,98277.38
2022-10-03T18:12:44.807Z,98287.56
2022-10-03T18:16:15.032Z,98280.56
2022-10-03T18:19:33.086Z,98285.34
2022-10-03T18:22:30.897Z,98292.38
2022-10-03T18:26:08.070Z,98289.84
2022-10-03T18:29:17.849Z,98291.25
2022-10-03T18:32:15.907Z,98306.66
2022-10-03T18:35:15.879Z,98307.84
2022-10-03T18:38:18.233Z,98310.31
2022-10-03T18:41:17.237Z,98318.84
2022-10-03T18:44:07.637Z,98324.28
2022-10-03T18:47:08.849Z,98323.53
2022-10-03T18:50:10.445Z,98331.78
2022-10-03T18:53:24.260Z,98339.50
2022-10-03T18:56:16.683Z,98334.03
2022-10-03T18:59:20.688Z,98343.94
2022-10-03T19:02:20.261Z,98321.72
2022-10-03T19:05:15.673Z,98350.50
2022-10-03T19:08:12.470Z,98353.88
2022-10-03T19:11:16.983Z,98326.91
2022-10-03T19:14:14.141Z,98375.41
2022-10-03T19:17:22.256Z,98354.97
2022-10-03T19:20:26.379Z,98334.09
2022-10-03T19:23:32.694Z,98354.81
2022-10-03T19:26:26.659Z,98322.47
2022-10-03T19:29:22.199Z,98335.94
2022-10-03T19:32:23.629Z,98333.81
2022-10-03T19:35:21.932Z,98334.22
2022-10-03T19:38:19.201Z,98337.94
2022-10-03T19:41:22.042Z,98334.22
2022-10-03T19:44:21.788Z,98330.31
2022-10-03T19:47:18.918Z,98339.84
2022-10-03T19:50:21.127Z,98337.69
2022-10-03T19:53:17.043Z,98356.47
2022-10-03T19:56:16.104Z,98339.63
2022-10-03T19:59:08.042Z,98322.97
2022-10-03T20:01:59.760Z,98337.47
2022-10-03T20:04:53.479Z,98339.19
2022-10-03T20:07:51.867Z,98335.25
2022-10-03T20:10:58.275Z,98356.97
2022-10-03T20:14:00.087Z,98335.94
2022-10-03T20:16:58.471Z,98331.75
2022-10-03T20:19:56.519Z,98341.28
2022-10-03T20:22:47.258Z,98334.16
2022-10-03T20:25:41.740Z,98344.84
2022-10-03T20:29:11.061Z,98338.41
2022-10-03T20:32:03.082Z,98342.25
2022-10-03T20:34:58.132Z,98330.84
2022-10-03T20:37:51.322Z,98335.28
2022-10-03T20:40:45.397Z,98332.78
2022-10-03T20:43:42.428Z,98338.25
2022-10-03T20:46:39.478Z,98343.47
2022-10-03T20:49:49.320Z,98339.44
2022-10-03T20:52:40.393Z,98334.81
2022-10-03T20:55:33.548Z,98335.38
2022-10-03T20:58:42.548Z,98321.31
2022-10-03T21:01:44.166Z,98333.38
2022-10-03T21:04:39.386Z,98327.78
2022-10-03T21:07:38.924Z,98348.59
2022-10-03T21:10:41.829Z,98331.56
2022-10-03T21:13:35.747Z,98333.22
2022-10-03T21:16:28.292Z,98335.13
2022-10-03T21:19:24.581Z,98347.09
2022-10-03T21:22:19.706Z,98343.91
2022-10-03T21:25:22.289Z,98342.50
2022-10-03T21:28:26.566Z,98339.31
2022-10-03T21:31:31.305Z,98341.28
2022-10-03T21:34:35.381Z,98352.31
2022-10-03T21:37:34.920Z,98340.16
2022-10-03T21:40:53.179Z,98336.63
2022-10-03T21:43:53.130Z,98355.69
2022-10-03T21:46:55.323Z,98341.31
2022-10-03T21:49:57.670Z,98346.22
2022-10-03T21:53:12.134Z,98349.75
2022-10-03T21:56:19.402Z,98340.81
2022-10-03T21:59:24.702Z,98347.31
2022-10-03T22:02:23.366Z,98341.28
2022-10-03T22:05:22.026Z,98335.47
2022-10-03T22:08:28.284Z,98347.28
2022-10-03T22:11:31.269Z,98346.72
2022-10-03T22:14:31.472Z,98342.03
2022-10-03T22:17:31.382Z,98351.63
2022-10-03T22:20:33.585Z,98330.72
2022-10-03T22:23:34.336Z,98338.25
2022-10-03T22:26:33.046Z,98337.00
2022-10-03T22:29:30.821Z,98363.16
2022-10-03T22:32:27.892Z,98347.78
2022-10-03T22:35:34.315Z,98346.31
2022-10-03T22:38:27.789Z,98345.66
2022-10-03T22:41:21.688Z,98340.75
2022-10-03T22:44:16.699Z,98340.94
2022-10-03T22:47:12.908Z,98340.13
2022-10-03T22:50:14.114Z,98339.03
2022-10-03T22:53:05.948Z,98328.00
2022-10-03T22:56:01.166Z,98335.09
2022-10-03T22:58:52.115Z,98328.16
2022-10-03T23:01:50.786Z,98337.75
2022-10-03T23:04:44.294Z,98332.47
2022-10-03T23:07:52.752Z,98333.84
2022-10-03T23:10:52.998Z,98337.31
2022-10-03T23:13:44.254Z,98327.88
2022-10-03T23:16:51.502Z,98324.75
2022-10-03T23:19:56.479Z,98325.41
2022-10-03T23:22:49.451Z,98324.66
2022-10-03T23:26:03.006Z,98335.41
2022-10-03T23:29:05.359Z,98326.38
2022-10-03T23:31:59.441Z,98331.66
2022-10-03T23:35:12.513Z,98323.13
2022-10-03T23:38:01.873Z,98320.84
2022-10-03T23:40:51.398Z,98332.09
2022-10-03T23:43:50.064Z,98320.84
2022-10-03T23:46:42.833Z,98323.25
2022-10-03T23:49:34.650Z,98325.78
2022-10-03T23:52:35.876Z,98334.22
2022-10-03T23:55:29.854Z,98319.16
2022-10-03T23:58:28.990Z,98331.78
